sensor_id;sensor_type;location;lat;lon;timestamp;P1;durP1;ratioP1;P2;durP2;ratioP2
211;SDS011;16228;48.800;9.002;2023-07-16T00:01:02;2.87;;;2.53;;
211;SDS011;16228;48.800;9.002;2023-07-16T00:03:48;3.20;;;3.10;;
211;SDS011;16228;48.800;9.002;2023-07-16T00:06:33;2.33;;;2.13;;
211;SDS011;16228;48.800;9.002;2023-07-16T00:09:20;3.57;;;3.37;;
211;SDS011;16228;48.800;9.002;2023-07-16T00:12:06;2.50;;;2.30;;
211;SDS011;16228;48.800;9.002;2023-07-16T00:14:52;2.77;;;2.67;;
211;SDS011;16228;48.800;9.002;2023-07-16T00:17:39;3.13;;;2.87;;
211;SDS011;16228;48.800;9.002;2023-07-16T00:20:24;3.83;;;3.20;;
211;SDS011;16228;48.800;9.002;2023-07-16T00:23:10;2.97;;;2.87;;
211;SDS011;16228;48.800;9.002;2023-07-16T00:25:57;2.37;;;2.27;;
211;SDS011;16228;48.800;9.002;2023-07-16T00:28:43;2.97;;;2.77;;
211;SDS011;16228;48.800;9.002;2023-07-16T00:31:28;3.70;;;3.50;;
211;SDS011;16228;48.800;9.002;2023-07-16T00:34:14;3.23;;;3.03;;
211;SDS011;16228;48.800;9.002;2023-07-16T00:37:00;2.97;;;2.87;;
211;SDS011;16228;48.800;9.002;2023-07-16T00:39:46;2.53;;;2.43;;
211;SDS011;16228;48.800;9.002;2023-07-16T00:42:33;2.90;;;2.43;;
211;SDS011;16228;48.800;9.002;2023-07-16T00:45:19;2.80;;;2.70;;
211;SDS011;16228;48.800;9.002;2023-07-16T00:48:05;3.43;;;3.13;;
211;SDS011;16228;48.800;9.002;2023-07-16T00:50:52;3.40;;;3.07;;
211;SDS011;16228;48.800;9.002;2023-07-16T00:53:39;3.00;;;2.80;;
211;SDS011;16228;48.800;9.002;2023-07-16T00:56:26;3.37;;;3.17;;
211;SDS011;16228;48.800;9.002;2023-07-16T00:59:13;3.63;;;3.43;;
211;SDS011;16228;48.800;9.002;2023-07-16T01:01:58;4.37;;;4.17;;
211;SDS011;16228;48.800;9.002;2023-07-16T01:04:44;2.57;;;2.37;;
211;SDS011;16228;48.800;9.002;2023-07-16T01:07:30;2.57;;;2.40;;
211;SDS011;16228;48.800;9.002;2023-07-16T01:10:16;2.40;;;2.20;;
211;SDS011;16228;48.800;9.002;2023-07-16T01:13:03;2.73;;;2.53;;
211;SDS011;16228;48.800;9.002;2023-07-16T01:15:50;2.10;;;2.00;;
211;SDS011;16228;48.800;9.002;2023-07-16T01:18:36;3.27;;;3.07;;
211;SDS011;16228;48.800;9.002;2023-07-16T01:21:22;2.53;;;2.43;;
211;SDS011;16228;48.800;9.002;2023-07-16T01:24:13;1.93;;;1.70;;
211;SDS011;16228;48.800;9.002;2023-07-16T01:27:18;3.10;;;2.80;;
211;SDS011;16228;48.800;9.002;2023-07-16T01:30:16;2.37;;;2.03;;
211;SDS011;16228;48.800;9.002;2023-07-16T01:33:04;4.97;;;1.90;;
211;SDS011;16228;48.800;9.002;2023-07-16T01:35:50;2.30;;;2.10;;
211;SDS011;16228;48.800;9.002;2023-07-16T01:38:36;3.53;;;3.00;;
211;SDS011;16228;48.800;9.002;2023-07-16T01:41:22;2.40;;;2.20;;
211;SDS011;16228;48.800;9.002;2023-07-16T01:44:08;3.10;;;2.80;;
211;SDS011;16228;48.800;9.002;2023-07-16T01:47:03;2.10;;;2.00;;
211;SDS011;16228;48.800;9.002;2023-07-16T01:49:52;5.43;;;3.40;;
211;SDS011;16228;48.800;9.002;2023-07-16T01:52:38;3.80;;;2.80;;
211;SDS011;16228;48.800;9.002;2023-07-16T01:55:24;4.90;;;2.53;;
211;SDS011;16228;48.800;9.002;2023-07-16T01:58:09;3.57;;;2.63;;
211;SDS011;16228;48.800;9.002;2023-07-16T02:00:55;3.30;;;3.03;;
211;SDS011;16228;48.800;9.002;2023-07-16T02:03:42;5.77;;;2.93;;
211;SDS011;16228;48.800;9.002;2023-07-16T02:06:27;3.00;;;2.53;;
211;SDS011;16228;48.800;9.002;2023-07-16T02:09:13;2.97;;;2.77;;
211;SDS011;16228;48.800;9.002;2023-07-16T02:11:59;3.33;;;2.57;;
211;SDS011;16228;48.800;9.002;2023-07-16T02:14:44;5.50;;;3.17;;
211;SDS011;16228;48.800;9.002;2023-07-16T02:17:30;3.50;;;3.20;;
211;SDS011;16228;48.800;9.002;2023-07-16T02:20:17;2.97;;;2.67;;
211;SDS011;16228;48.800;9.002;2023-07-16T02:23:03;3.60;;;3.23;;
211;SDS011;16228;48.800;9.002;2023-07-16T02:25:48;4.00;;;2.97;;
211;SDS011;16228;48.800;9.002;2023-07-16T02:28:34;4.37;;;3.60;;
211;SDS011;16228;48.800;9.002;2023-07-16T02:31:20;3.30;;;3.10;;
211;SDS011;16228;48.800;9.002;2023-07-16T02:34:05;3.20;;;2.93;;
211;SDS011;16228;48.800;9.002;2023-07-16T02:36:52;3.07;;;2.70;;
211;SDS011;16228;48.800;9.002;2023-07-16T02:39:38;4.20;;;2.70;;
211;SDS011;16228;48.800;9.002;2023-07-16T02:42:23;3.57;;;3.20;;
211;SDS011;16228;48.800;9.002;2023-07-16T02:45:09;3.30;;;3.00;;
211;SDS011;16228;48.800;9.002;2023-07-16T02:47:55;4.40;;;3.03;;
211;SDS011;16228;48.800;9.002;2023-07-16T02:50:41;3.53;;;2.73;;
211;SDS011;16228;48.800;9.002;2023-07-16T02:53:28;5.20;;;3.40;;
211;SDS011;16228;48.800;9.002;2023-07-16T02:56:13;4.70;;;3.00;;
211;SDS011;16228;48.800;9.002;2023-07-16T02:59:00;3.63;;;3.33;;
211;SDS011;16228;48.800;9.002;2023-07-16T03:01:45;5.37;;;2.53;;
211;SDS011;16228;48.800;9.002;2023-07-16T03:04:31;4.13;;;3.37;;
211;SDS011;16228;48.800;9.002;2023-07-16T03:07:17;2.67;;;2.47;;
211;SDS011;16228;48.800;9.002;2023-07-16T03:10:04;3.93;;;2.70;;
211;SDS011;16228;48.800;9.002;2023-07-16T03:12:50;6.80;;;2.43;;
211;SDS011;16228;48.800;9.002;2023-07-16T03:15:36;4.07;;;3.70;;
211;SDS011;16228;48.800;9.002;2023-07-16T03:18:22;3.10;;;2.80;;
211;SDS011;16228;48.800;9.002;2023-07-16T03:21:12;4.10;;;2.90;;
211;SDS011;16228;48.800;9.002;2023-07-16T03:23:57;3.47;;;3.17;;
211;SDS011;16228;48.800;9.002;2023-07-16T03:26:45;4.37;;;3.20;;
211;SDS011;16228;48.800;9.002;2023-07-16T03:29:30;3.13;;;2.37;;
211;SDS011;16228;48.800;9.002;2023-07-16T03:32:16;2.80;;;2.60;;
211;SDS011;16228;48.800;9.002;2023-07-16T03:35:02;3.57;;;2.50;;
211;SDS011;16228;48.800;9.002;2023-07-16T03:37:48;3.90;;;3.60;;
211;SDS011;16228;48.800;9.002;2023-07-16T03:40:34;4.60;;;2.53;;
211;SDS011;16228;48.800;9.002;2023-07-16T03:43:20;5.53;;;3.47;;
211;SDS011;16228;48.800;9.002;2023-07-16T03:46:06;6.57;;;3.50;;
211;SDS011;16228;48.800;9.002;2023-07-16T03:48:52;3.33;;;2.40;;
211;SDS011;16228;48.800;9.002;2023-07-16T03:51:38;4.90;;;2.50;;
211;SDS011;16228;48.800;9.002;2023-07-16T03:54:23;4.97;;;2.47;;
211;SDS011;16228;48.800;9.002;2023-07-16T03:57:09;4.97;;;2.90;;
211;SDS011;16228;48.800;9.002;2023-07-16T03:59:56;4.03;;;3.10;;
211;SDS011;16228;48.800;9.002;2023-07-16T04:02:41;3.80;;;2.47;;
211;SDS011;16228;48.800;9.002;2023-07-16T04:05:27;2.80;;;2.60;;
211;SDS011;16228;48.800;9.002;2023-07-16T04:08:13;6.53;;;3.00;;
211;SDS011;16228;48.800;9.002;2023-07-16T04:10:58;4.90;;;2.70;;
211;SDS011;16228;48.800;9.002;2023-07-16T04:13:44;7.40;;;3.30;;
211;SDS011;16228;48.800;9.002;2023-07-16T04:16:31;6.60;;;2.80;;
211;SDS011;16228;48.800;9.002;2023-07-16T04:19:16;3.90;;;3.43;;
211;SDS011;16228;48.800;9.002;2023-07-16T04:22:02;5.83;;;3.63;;
211;SDS011;16228;48.800;9.002;2023-07-16T04:24:48;4.70;;;3.20;;
211;SDS011;16228;48.800;9.002;2023-07-16T04:27:34;4.90;;;3.17;;
211;SDS011;16228;48.800;9.002;2023-07-16T04:30:19;5.13;;;3.23;;
211;SDS011;16228;48.800;9.002;2023-07-16T04:33:06;4.97;;;3.60;;
211;SDS011;16228;48.800;9.002;2023-07-16T04:35:51;4.70;;;3.07;;
211;SDS011;16228;48.800;9.002;2023-07-16T04:38:37;3.63;;;2.77;;
211;SDS011;16228;48.800;9.002;2023-07-16T04:41:23;4.07;;;2.90;;
211;SDS011;16228;48.800;9.002;2023-07-16T04:44:09;5.53;;;2.93;;
211;SDS011;16228;48.800;9.002;2023-07-16T04:46:54;3.30;;;2.63;;
211;SDS011;16228;48.800;9.002;2023-07-16T04:49:42;3.40;;;3.10;;
211;SDS011;16228;48.800;9.002;2023-07-16T04:52:27;4.37;;;3.20;;
211;SDS011;16228;48.800;9.002;2023-07-16T04:55:13;5.00;;;2.60;;
211;SDS011;16228;48.800;9.002;2023-07-16T04:57:59;4.70;;;2.60;;
211;SDS011;16228;48.800;9.002;2023-07-16T05:00:45;3.67;;;2.37;;
211;SDS011;16228;48.800;9.002;2023-07-16T05:03:30;4.60;;;2.70;;
211;SDS011;16228;48.800;9.002;2023-07-16T05:06:17;4.73;;;2.53;;
211;SDS011;16228;48.800;9.002;2023-07-16T05:09:03;2.90;;;2.70;;
211;SDS011;16228;48.800;9.002;2023-07-16T05:11:48;3.40;;;2.80;;
211;SDS011;16228;48.800;9.002;2023-07-16T05:14:42;5.80;;;3.17;;
211;SDS011;16228;48.800;9.002;2023-07-16T05:17:29;6.87;;;2.80;;
211;SDS011;16228;48.800;9.002;2023-07-16T05:20:15;6.23;;;3.07;;
211;SDS011;16228;48.800;9.002;2023-07-16T05:23:02;6.73;;;3.10;;
211;SDS011;16228;48.800;9.002;2023-07-16T05:25:47;4.53;;;2.20;;
211;SDS011;16228;48.800;9.002;2023-07-16T05:28:33;4.90;;;2.30;;
211;SDS011;16228;48.800;9.002;2023-07-16T05:31:20;6.33;;;2.43;;
211;SDS011;16228;48.800;9.002;2023-07-16T05:34:05;3.57;;;1.50;;
211;SDS011;16228;48.800;9.002;2023-07-16T05:36:52;4.97;;;2.27;;
211;SDS011;16228;48.800;9.002;2023-07-16T05:39:39;6.87;;;2.87;;
211;SDS011;16228;48.800;9.002;2023-07-16T05:42:25;5.33;;;2.10;;
211;SDS011;16228;48.800;9.002;2023-07-16T05:45:10;4.10;;;1.40;;
211;SDS011;16228;48.800;9.002;2023-07-16T05:47:56;2.37;;;1.60;;
211;SDS011;16228;48.800;9.002;2023-07-16T05:50:43;3.27;;;1.80;;
211;SDS011;16228;48.800;9.002;2023-07-16T05:53:29;2.13;;;1.87;;
211;SDS011;16228;48.800;9.002;2023-07-16T05:56:16;5.83;;;1.90;;
211;SDS011;16228;48.800;9.002;2023-07-16T05:59:01;3.77;;;2.00;;
211;SDS011;16228;48.800;9.002;2023-07-16T06:01:47;4.53;;;2.10;;
211;SDS011;16228;48.800;9.002;2023-07-16T06:04:32;6.40;;;2.03;;
211;SDS011;16228;48.800;9.002;2023-07-16T06:07:18;3.13;;;1.77;;
211;SDS011;16228;48.800;9.002;2023-07-16T06:10:04;3.00;;;1.90;;
211;SDS011;16228;48.800;9.002;2023-07-16T06:12:51;5.23;;;2.53;;
211;SDS011;16228;48.800;9.002;2023-07-16T06:15:37;4.43;;;2.30;;
211;SDS011;16228;48.800;9.002;2023-07-16T06:18:22;3.67;;;1.60;;
211;SDS011;16228;48.800;9.002;2023-07-16T06:21:08;7.63;;;1.73;;
211;SDS011;16228;48.800;9.002;2023-07-16T06:23:54;3.03;;;1.80;;
211;SDS011;16228;48.800;9.002;2023-07-16T06:26:39;7.13;;;2.17;;
211;SDS011;16228;48.800;9.002;2023-07-16T06:29:26;3.13;;;1.47;;
211;SDS011;16228;48.800;9.002;2023-07-16T06:32:12;5.30;;;2.17;;
211;SDS011;16228;48.800;9.002;2023-07-16T06:34:57;7.03;;;2.23;;
211;SDS011;16228;48.800;9.002;2023-07-16T06:37:43;4.17;;;2.33;;
211;SDS011;16228;48.800;9.002;2023-07-16T06:40:28;3.90;;;1.97;;
211;SDS011;16228;48.800;9.002;2023-07-16T06:43:15;6.23;;;1.70;;
211;SDS011;16228;48.800;9.002;2023-07-16T06:46:02;3.20;;;1.43;;
211;SDS011;16228;48.800;9.002;2023-07-16T06:48:47;4.20;;;1.83;;
211;SDS011;16228;48.800;9.002;2023-07-16T06:51:33;7.57;;;1.77;;
211;SDS011;16228;48.800;9.002;2023-07-16T06:54:18;3.57;;;1.50;;
211;SDS011;16228;48.800;9.002;2023-07-16T06:57:04;4.83;;;1.80;;
211;SDS011;16228;48.800;9.002;2023-07-16T06:59:50;3.13;;;1.67;;
211;SDS011;16228;48.800;9.002;2023-07-16T07:02:37;5.23;;;2.00;;
211;SDS011;16228;48.800;9.002;2023-07-16T07:05:23;3.00;;;1.70;;
211;SDS011;16228;48.800;9.002;2023-07-16T07:08:08;7.50;;;1.80;;
211;SDS011;16228;48.800;9.002;2023-07-16T07:10:54;3.40;;;1.90;;
211;SDS011;16228;48.800;9.002;2023-07-16T07:13:40;3.60;;;1.77;;
211;SDS011;16228;48.800;9.002;2023-07-16T07:16:25;4.00;;;1.70;;
211;SDS011;16228;48.800;9.002;2023-07-16T07:19:12;3.40;;;1.50;;
211;SDS011;16228;48.800;9.002;2023-07-16T07:21:58;2.63;;;1.60;;
211;SDS011;16228;48.800;9.002;2023-07-16T07:24:43;4.00;;;1.90;;
211;SDS011;16228;48.800;9.002;2023-07-16T07:27:29;4.17;;;1.60;;
211;SDS011;16228;48.800;9.002;2023-07-16T07:30:15;3.10;;;1.70;;
211;SDS011;16228;48.800;9.002;2023-07-16T07:33:00;2.23;;;1.63;;
211;SDS011;16228;48.800;9.002;2023-07-16T07:35:48;1.97;;;1.73;;
211;SDS011;16228;48.800;9.002;2023-07-16T07:38:33;6.70;;;1.40;;
211;SDS011;16228;48.800;9.002;2023-07-16T07:41:19;3.87;;;1.57;;
211;SDS011;16228;48.800;9.002;2023-07-16T07:44:04;2.77;;;1.10;;
211;SDS011;16228;48.800;9.002;2023-07-16T07:46:50;4.10;;;1.83;;
211;SDS011;16228;48.800;9.002;2023-07-16T07:49:35;4.80;;;1.70;;
211;SDS011;16228;48.800;9.002;2023-07-16T07:52:22;3.75;;;1.50;;
211;SDS011;16228;48.800;9.002;2023-07-16T07:55:08;1.97;;;1.50;;
211;SDS011;16228;48.800;9.002;2023-07-16T07:57:53;1.93;;;1.63;;
211;SDS011;16228;48.800;9.002;2023-07-16T08:00:39;2.83;;;1.50;;
211;SDS011;16228;48.800;9.002;2023-07-16T08:03:25;3.50;;;1.63;;
211;SDS011;16228;48.800;9.002;2023-07-16T08:06:11;3.80;;;1.77;;
211;SDS011;16228;48.800;9.002;2023-07-16T08:08:58;2.75;;;1.38;;
211;SDS011;16228;48.800;9.002;2023-07-16T08:11:43;3.22;;;1.38;;
211;SDS011;16228;48.800;9.002;2023-07-16T08:14:29;2.92;;;1.65;;
211;SDS011;16228;48.800;9.002;2023-07-16T08:17:14;2.80;;;1.60;;
211;SDS011;16228;48.800;9.002;2023-07-16T08:20:00;3.03;;;1.80;;
211;SDS011;16228;48.800;9.002;2023-07-16T08:22:46;3.17;;;1.87;;
211;SDS011;16228;48.800;9.002;2023-07-16T08:25:33;4.50;;;2.07;;
211;SDS011;16228;48.800;9.002;2023-07-16T08:28:19;2.23;;;1.60;;
211;SDS011;16228;48.800;9.002;2023-07-16T08:31:04;1.67;;;1.50;;
211;SDS011;16228;48.800;9.002;2023-07-16T08:33:50;4.00;;;2.10;;
211;SDS011;16228;48.800;9.002;2023-07-16T08:36:36;4.50;;;1.70;;
211;SDS011;16228;48.800;9.002;2023-07-16T08:39:22;2.37;;;1.63;;
211;SDS011;16228;48.800;9.002;2023-07-16T08:42:09;2.73;;;1.97;;
211;SDS011;16228;48.800;9.002;2023-07-16T08:44:55;4.43;;;2.00;;
211;SDS011;16228;48.800;9.002;2023-07-16T08:47:40;1.60;;;1.40;;
211;SDS011;16228;48.800;9.002;2023-07-16T08:50:26;3.77;;;1.83;;
211;SDS011;16228;48.800;9.002;2023-07-16T08:53:12;3.50;;;1.90;;
211;SDS011;16228;48.800;9.002;2023-07-16T08:56:00;2.50;;;1.93;;
211;SDS011;16228;48.800;9.002;2023-07-16T08:58:50;2.13;;;1.80;;
211;SDS011;16228;48.800;9.002;2023-07-16T09:01:39;4.10;;;1.80;;
211;SDS011;16228;48.800;9.002;2023-07-16T09:04:24;3.23;;;1.67;;
211;SDS011;16228;48.800;9.002;2023-07-16T09:07:10;3.10;;;1.97;;
211;SDS011;16228;48.800;9.002;2023-07-16T09:09:56;2.70;;;1.53;;
211;SDS011;16228;48.800;9.002;2023-07-16T09:12:43;2.77;;;1.90;;
211;SDS011;16228;48.800;9.002;2023-07-16T09:15:31;1.67;;;1.40;;
211;SDS011;16228;48.800;9.002;2023-07-16T09:18:19;3.95;;;2.13;;
211;SDS011;16228;48.800;9.002;2023-07-16T09:21:05;2.00;;;1.20;;
211;SDS011;16228;48.800;9.002;2023-07-16T09:23:52;2.58;;;1.52;;
211;SDS011;16228;48.800;9.002;2023-07-16T09:26:37;1.90;;;1.25;;
211;SDS011;16228;48.800;9.002;2023-07-16T09:29:24;3.03;;;1.55;;
211;SDS011;16228;48.800;9.002;2023-07-16T09:32:12;3.38;;;1.63;;
211;SDS011;16228;48.800;9.002;2023-07-16T09:34:58;2.42;;;1.50;;
211;SDS011;16228;48.800;9.002;2023-07-16T09:37:44;2.53;;;1.40;;
211;SDS011;16228;48.800;9.002;2023-07-16T09:40:29;3.47;;;1.83;;
211;SDS011;16228;48.800;9.002;2023-07-16T09:43:15;1.73;;;1.43;;
211;SDS011;16228;48.800;9.002;2023-07-16T09:46:01;2.03;;;1.67;;
211;SDS011;16228;48.800;9.002;2023-07-16T09:48:48;1.93;;;1.27;;
211;SDS011;16228;48.800;9.002;2023-07-16T09:51:34;1.70;;;1.60;;
211;SDS011;16228;48.800;9.002;2023-07-16T09:54:21;2.97;;;1.60;;
211;SDS011;16228;48.800;9.002;2023-07-16T09:57:08;2.53;;;1.73;;
211;SDS011;16228;48.800;9.002;2023-07-16T09:59:54;4.57;;;1.77;;
211;SDS011;16228;48.800;9.002;2023-07-16T10:02:44;2.10;;;1.60;;
211;SDS011;16228;48.800;9.002;2023-07-16T10:05:31;3.17;;;1.50;;
211;SDS011;16228;48.800;9.002;2023-07-16T10:08:20;1.88;;;1.65;;
211;SDS011;16228;48.800;9.002;2023-07-16T10:11:14;3.40;;;1.63;;
211;SDS011;16228;48.800;9.002;2023-07-16T10:14:00;2.47;;;1.75;;
211;SDS011;16228;48.800;9.002;2023-07-16T10:16:46;1.48;;;1.35;;
211;SDS011;16228;48.800;9.002;2023-07-16T10:19:34;3.17;;;1.50;;
211;SDS011;16228;48.800;9.002;2023-07-16T10:22:36;2.25;;;1.30;;
211;SDS011;16228;48.800;9.002;2023-07-16T10:25:23;1.60;;;1.40;;
211;SDS011;16228;48.800;9.002;2023-07-16T10:28:10;1.85;;;1.42;;
211;SDS011;16228;48.800;9.002;2023-07-16T10:30:56;2.45;;;1.60;;
211;SDS011;16228;48.800;9.002;2023-07-16T10:33:41;1.98;;;1.70;;
211;SDS011;16228;48.800;9.002;2023-07-16T10:36:27;1.80;;;1.63;;
211;SDS011;16228;48.800;9.002;2023-07-16T10:39:14;1.80;;;1.70;;
211;SDS011;16228;48.800;9.002;2023-07-16T10:42:01;2.90;;;2.00;;
211;SDS011;16228;48.800;9.002;2023-07-16T10:44:50;2.72;;;2.08;;
211;SDS011;16228;48.800;9.002;2023-07-16T10:47:38;3.17;;;2.33;;
211;SDS011;16228;48.800;9.002;2023-07-16T10:50:35;1.88;;;1.67;;
211;SDS011;16228;48.800;9.002;2023-07-16T10:53:20;1.83;;;1.48;;
211;SDS011;16228;48.800;9.002;2023-07-16T10:56:07;2.03;;;1.33;;
211;SDS011;16228;48.800;9.002;2023-07-16T10:58:53;1.65;;;1.40;;
211;SDS011;16228;48.800;9.002;2023-07-16T11:01:38;1.95;;;1.65;;
211;SDS011;16228;48.800;9.002;2023-07-16T11:04:24;2.88;;;1.92;;
211;SDS011;16228;48.800;9.002;2023-07-16T11:07:10;2.88;;;1.95;;
211;SDS011;16228;48.800;9.002;2023-07-16T11:09:57;4.63;;;1.77;;
211;SDS011;16228;48.800;9.002;2023-07-16T11:12:51;3.10;;;1.60;;
211;SDS011;16228;48.800;9.002;2023-07-16T11:15:37;2.43;;;2.10;;
211;SDS011;16228;48.800;9.002;2023-07-16T11:18:24;3.83;;;2.00;;
211;SDS011;16228;48.800;9.002;2023-07-16T11:21:10;3.13;;;2.20;;
211;SDS011;16228;48.800;9.002;2023-07-16T11:23:55;3.47;;;1.97;;
211;SDS011;16228;48.800;9.002;2023-07-16T11:26:51;3.60;;;2.10;;
211;SDS011;16228;48.800;9.002;2023-07-16T11:29:40;1.40;;;1.30;;
211;SDS011;16228;48.800;9.002;2023-07-16T11:32:30;2.73;;;1.90;;
211;SDS011;16228;48.800;9.002;2023-07-16T11:35:17;3.67;;;1.77;;
211;SDS011;16228;48.800;9.002;2023-07-16T11:38:04;2.10;;;1.80;;
211;SDS011;16228;48.800;9.002;2023-07-16T11:40:50;3.03;;;2.20;;
211;SDS011;16228;48.800;9.002;2023-07-16T11:43:35;2.47;;;1.73;;
211;SDS011;16228;48.800;9.002;2023-07-16T11:46:23;1.93;;;1.73;;
211;SDS011;16228;48.800;9.002;2023-07-16T11:49:08;3.10;;;2.03;;
211;SDS011;16228;48.800;9.002;2023-07-16T11:51:54;1.80;;;1.70;;
211;SDS011;16228;48.800;9.002;2023-07-16T11:54:40;2.70;;;1.80;;
211;SDS011;16228;48.800;9.002;2023-07-16T11:57:25;4.30;;;2.30;;
211;SDS011;16228;48.800;9.002;2023-07-16T12:00:11;3.30;;;2.05;;
211;SDS011;16228;48.800;9.002;2023-07-16T12:02:58;2.75;;;1.95;;
211;SDS011;16228;48.800;9.002;2023-07-16T12:05:44;1.92;;;1.73;;
211;SDS011;16228;48.800;9.002;2023-07-16T12:08:29;1.88;;;1.67;;
211;SDS011;16228;48.800;9.002;2023-07-16T12:11:15;2.30;;;1.90;;
211;SDS011;16228;48.800;9.002;2023-07-16T12:14:01;2.38;;;1.90;;
211;SDS011;16228;48.800;9.002;2023-07-16T12:16:46;2.38;;;1.77;;
211;SDS011;16228;48.800;9.002;2023-07-16T12:19:33;2.50;;;2.22;;
211;SDS011;16228;48.800;9.002;2023-07-16T12:22:18;2.72;;;2.03;;
211;SDS011;16228;48.800;9.002;2023-07-16T12:25:05;2.33;;;1.65;;
211;SDS011;16228;48.800;9.002;2023-07-16T12:27:51;2.25;;;2.05;;
211;SDS011;16228;48.800;9.002;2023-07-16T12:30:36;2.70;;;2.25;;
211;SDS011;16228;48.800;9.002;2023-07-16T12:33:22;2.47;;;2.28;;
211;SDS011;16228;48.800;9.002;2023-07-16T12:36:09;2.45;;;1.73;;
211;SDS011;16228;48.800;9.002;2023-07-16T12:38:54;2.53;;;2.33;;
211;SDS011;16228;48.800;9.002;2023-07-16T12:41:41;2.07;;;1.93;;
211;SDS011;16228;48.800;9.002;2023-07-16T12:44:27;3.60;;;2.43;;
211;SDS011;16228;48.800;9.002;2023-07-16T12:47:13;2.80;;;2.30;;
211;SDS011;16228;48.800;9.002;2023-07-16T12:49:58;2.70;;;1.70;;
211;SDS011;16228;48.800;9.002;2023-07-16T12:52:45;3.47;;;2.00;;
211;SDS011;16228;48.800;9.002;2023-07-16T12:55:31;2.95;;;2.00;;
211;SDS011;16228;48.800;9.002;2023-07-16T12:58:17;2.47;;;1.17;;
211;SDS011;16228;48.800;9.002;2023-07-16T13:01:03;2.15;;;1.70;;
211;SDS011;16228;48.800;9.002;2023-07-16T13:03:49;2.30;;;2.10;;
211;SDS011;16228;48.800;9.002;2023-07-16T13:06:35;1.77;;;1.63;;
211;SDS011;16228;48.800;9.002;2023-07-16T13:09:22;4.80;;;1.75;;
211;SDS011;16228;48.800;9.002;2023-07-16T13:12:07;2.38;;;2.00;;
211;SDS011;16228;48.800;9.002;2023-07-16T13:14:53;1.50;;;1.40;;
211;SDS011;16228;48.800;9.002;2023-07-16T13:17:39;2.88;;;2.22;;
211;SDS011;16228;48.800;9.002;2023-07-16T13:20:24;2.58;;;1.88;;
211;SDS011;16228;48.800;9.002;2023-07-16T13:23:10;2.22;;;2.13;;
211;SDS011;16228;48.800;9.002;2023-07-16T13:25:57;2.88;;;1.85;;
211;SDS011;16228;48.800;9.002;2023-07-16T13:28:43;2.40;;;2.20;;
211;SDS011;16228;48.800;9.002;2023-07-16T13:31:28;3.45;;;2.08;;
211;SDS011;16228;48.800;9.002;2023-07-16T13:34:14;3.20;;;1.73;;
211;SDS011;16228;48.800;9.002;2023-07-16T13:36:59;3.80;;;1.83;;
211;SDS011;16228;48.800;9.002;2023-07-16T13:39:45;2.50;;;2.20;;
211;SDS011;16228;48.800;9.002;2023-07-16T13:42:32;1.93;;;1.83;;
211;SDS011;16228;48.800;9.002;2023-07-16T13:45:17;3.33;;;1.73;;
211;SDS011;16228;48.800;9.002;2023-07-16T13:48:03;1.77;;;1.57;;
211;SDS011;16228;48.800;9.002;2023-07-16T13:50:49;1.73;;;1.63;;
211;SDS011;16228;48.800;9.002;2023-07-16T13:53:35;2.83;;;2.63;;
211;SDS011;16228;48.800;9.002;2023-07-16T13:56:20;2.40;;;2.20;;
211;SDS011;16228;48.800;9.002;2023-07-16T13:59:07;4.47;;;2.40;;
211;SDS011;16228;48.800;9.002;2023-07-16T14:01:59;3.37;;;2.30;;
211;SDS011;16228;48.800;9.002;2023-07-16T14:04:45;1.97;;;1.77;;
211;SDS011;16228;48.800;9.002;2023-07-16T14:07:31;1.83;;;1.60;;
211;SDS011;16228;48.800;9.002;2023-07-16T14:10:16;2.93;;;1.67;;
211;SDS011;16228;48.800;9.002;2023-07-16T14:13:02;2.73;;;2.53;;
211;SDS011;16228;48.800;9.002;2023-07-16T14:15:49;3.53;;;2.30;;
211;SDS011;16228;48.800;9.002;2023-07-16T14:18:34;3.07;;;2.10;;
211;SDS011;16228;48.800;9.002;2023-07-16T14:21:20;2.57;;;2.00;;
211;SDS011;16228;48.800;9.002;2023-07-16T14:24:05;4.10;;;2.23;;
211;SDS011;16228;48.800;9.002;2023-07-16T14:26:51;2.10;;;1.67;;
211;SDS011;16228;48.800;9.002;2023-07-16T14:29:37;4.03;;;2.30;;
211;SDS011;16228;48.800;9.002;2023-07-16T14:32:24;3.10;;;2.37;;
211;SDS011;16228;48.800;9.002;2023-07-16T14:35:09;2.60;;;1.73;;
211;SDS011;16228;48.800;9.002;2023-07-16T14:37:56;2.57;;;1.90;;
211;SDS011;16228;48.800;9.002;2023-07-16T14:40:42;3.50;;;2.40;;
211;SDS011;16228;48.800;9.002;2023-07-16T14:43:28;3.23;;;2.43;;
211;SDS011;16228;48.800;9.002;2023-07-16T14:46:14;2.47;;;1.90;;
211;SDS011;16228;48.800;9.002;2023-07-16T14:49:01;2.80;;;1.80;;
211;SDS011;16228;48.800;9.002;2023-07-16T14:51:46;4.50;;;2.97;;
211;SDS011;16228;48.800;9.002;2023-07-16T14:54:32;5.03;;;2.13;;
211;SDS011;16228;48.800;9.002;2023-07-16T14:57:19;4.20;;;2.17;;
211;SDS011;16228;48.800;9.002;2023-07-16T15:00:06;2.20;;;1.70;;
211;SDS011;16228;48.800;9.002;2023-07-16T15:02:54;3.33;;;2.20;;
211;SDS011;16228;48.800;9.002;2023-07-16T15:05:42;3.83;;;2.37;;
211;SDS011;16228;48.800;9.002;2023-07-16T15:08:27;6.20;;;2.70;;
211;SDS011;16228;48.800;9.002;2023-07-16T15:11:13;3.87;;;2.33;;
211;SDS011;16228;48.800;9.002;2023-07-16T15:13:58;3.33;;;1.90;;
211;SDS011;16228;48.800;9.002;2023-07-16T15:16:44;3.23;;;2.70;;
211;SDS011;16228;48.800;9.002;2023-07-16T15:19:29;2.83;;;2.20;;
211;SDS011;16228;48.800;9.002;2023-07-16T15:22:17;2.30;;;2.10;;
211;SDS011;16228;48.800;9.002;2023-07-16T15:25:04;3.37;;;2.10;;
211;SDS011;16228;48.800;9.002;2023-07-16T15:27:51;3.40;;;2.30;;
211;SDS011;16228;48.800;9.002;2023-07-16T15:30:37;3.97;;;3.23;;
211;SDS011;16228;48.800;9.002;2023-07-16T15:33:22;3.00;;;2.20;;
211;SDS011;16228;48.800;9.002;2023-07-16T15:36:08;3.90;;;2.10;;
211;SDS011;16228;48.800;9.002;2023-07-16T15:38:55;2.63;;;1.83;;
211;SDS011;16228;48.800;9.002;2023-07-16T15:41:40;3.23;;;2.30;;
211;SDS011;16228;48.800;9.002;2023-07-16T15:44:26;5.87;;;2.47;;
211;SDS011;16228;48.800;9.002;2023-07-16T15:47:12;2.77;;;2.57;;
211;SDS011;16228;48.800;9.002;2023-07-16T15:49:58;3.00;;;2.10;;
211;SDS011;16228;48.800;9.002;2023-07-16T15:52:43;5.13;;;2.30;;
211;SDS011;16228;48.800;9.002;2023-07-16T15:55:31;3.17;;;1.50;;
211;SDS011;16228;48.800;9.002;2023-07-16T15:58:16;3.57;;;2.13;;
211;SDS011;16228;48.800;9.002;2023-07-16T16:01:02;4.17;;;2.13;;
211;SDS011;16228;48.800;9.002;2023-07-16T16:03:48;2.20;;;1.80;;
211;SDS011;16228;48.800;9.002;2023-07-16T16:06:33;3.37;;;2.37;;
211;SDS011;16228;48.800;9.002;2023-07-16T16:09:19;3.80;;;2.67;;
211;SDS011;16228;48.800;9.002;2023-07-16T16:12:07;2.87;;;2.40;;
211;SDS011;16228;48.800;9.002;2023-07-16T16:14:53;3.33;;;2.47;;
211;SDS011;16228;48.800;9.002;2023-07-16T16:17:38;3.17;;;2.43;;
211;SDS011;16228;48.800;9.002;2023-07-16T16:20:24;3.90;;;2.40;;
211;SDS011;16228;48.800;9.002;2023-07-16T16:23:10;2.87;;;2.40;;
211;SDS011;16228;48.800;9.002;2023-07-16T16:25:55;3.10;;;2.50;;
211;SDS011;16228;48.800;9.002;2023-07-16T16:28:42;3.23;;;2.53;;
211;SDS011;16228;48.800;9.002;2023-07-16T16:31:28;3.37;;;2.27;;
211;SDS011;16228;48.800;9.002;2023-07-16T16:34:13;3.10;;;2.33;;
211;SDS011;16228;48.800;9.002;2023-07-16T16:36:59;3.83;;;2.13;;
211;SDS011;16228;48.800;9.002;2023-07-16T16:39:45;6.17;;;3.03;;
211;SDS011;16228;48.800;9.002;2023-07-16T16:42:31;3.13;;;2.53;;
211;SDS011;16228;48.800;9.002;2023-07-16T16:45:18;2.60;;;2.40;;
211;SDS011;16228;48.800;9.002;2023-07-16T16:48:04;2.53;;;2.00;;
211;SDS011;16228;48.800;9.002;2023-07-16T16:50:53;3.73;;;2.67;;
211;SDS011;16228;48.800;9.002;2023-07-16T16:53:39;2.03;;;1.67;;
211;SDS011;16228;48.800;9.002;2023-07-16T16:56:25;3.20;;;2.47;;
211;SDS011;16228;48.800;9.002;2023-07-16T16:59:10;4.23;;;2.50;;
211;SDS011;16228;48.800;9.002;2023-07-16T17:01:57;3.03;;;2.00;;
211;SDS011;16228;48.800;9.002;2023-07-16T17:04:43;3.13;;;2.10;;
211;SDS011;16228;48.800;9.002;2023-07-16T17:07:28;3.20;;;2.60;;
211;SDS011;16228;48.800;9.002;2023-07-16T17:10:14;5.37;;;2.90;;
211;SDS011;16228;48.800;9.002;2023-07-16T17:13:00;4.30;;;2.77;;